Time;durP1;ratioP1;P1;durP2;ratioP2;P2;SDS_P1;SDS_P2;PMS_P1;PMS_P2;Temp;Humidity;BMP_temperature;BMP_pressure;BME280_temperature;BME280_humidity;BME280_pressure;Samples;Min_cycle;Max_cycle;Signal;HPM_P1;HPM_P2
2024/01/10 00:01:49;;;;;;;32.67;22.13;;;;;;;-2.19;100.00;97263.78;5105338;27;20195;-60
2024/01/10 00:04:16;;;;;;;30.97;21.50;;;;;;;-2.11;100.00;97252.28;5105394;27;20209;-61
2024/01/10 00:06:43;;;;;;;35.50;22.17;;;;;;;-2.23;100.00;97249.28;5105168;27;21525;-62
2024/01/10 00:09:09;;;;;;;33.03;22.53;;;;;;;-2.10;100.00;97251.41;5104632;28;20205;-61
2024/01/10 00:11:36;;;;;;;31.27;21.40;;;;;;;-2.17;100.00;97247.31;5103811;27;20656;-60
2024/01/10 00:14:03;;;;;;;36.20;21.83;;;;;;;-2.20;100.00;97246.56;5104443;28;20280;-60
2024/01/10 00:16:31;;;;;;;33.70;22.63;;;;;;;-2.11;100.00;97248.84;5105598;28;20214;-60
2024/01/10 00:18:57;;;;;;;34.60;22.30;;;;;;;-2.30;100.00;97240.84;5105049;28;20205;-59
2024/01/10 00:21:24;;;;;;;34.53;22.43;;;;;;;-2.25;100.00;97254.50;5104122;28;20300;-61
2024/01/10 00:23:50;;;;;;;33.03;21.03;;;;;;;-2.22;100.00;97249.22;5104265;28;20197;-61
2024/01/10 00:26:18;;;;;;;30.97;20.37;;;;;;;-2.20;100.00;97242.25;5104292;28;20292;-61
2024/01/10 00:28:45;;;;;;;34.63;22.17;;;;;;;-2.03;100.00;97244.25;5104499;27;20279;-61
2024/01/10 00:31:12;;;;;;;32.73;21.30;;;;;;;-2.11;100.00;97241.94;5103574;28;20219;-60
2024/01/10 00:33:41;;;;;;;36.77;22.60;;;;;;;-2.17;100.00;97247.31;5104020;28;20998;-61
2024/01/10 00:36:07;;;;;;;34.87;21.80;;;;;;;-2.22;100.00;97251.78;5117969;28;20206;-60
2024/01/10 00:38:34;;;;;;;32.67;22.03;;;;;;;-2.06;100.00;97245.22;5133191;28;20238;-61
2024/01/10 00:41:02;;;;;;;29.83;20.47;;;;;;;-2.01;100.00;97256.25;5126017;27;20209;-61
2024/01/10 00:43:29;;;;;;;31.53;20.63;;;;;;;-1.94;100.00;97245.66;5126727;28;20201;-62
2024/01/10 00:45:57;;;;;;;30.30;21.13;;;;;;;-1.95;100.00;97247.44;5105913;27;20612;-62
2024/01/10 00:48:24;;;;;;;32.87;21.63;;;;;;;-2.08;100.00;97241.81;5104235;27;20209;-60
2024/01/10 00:50:52;;;;;;;29.30;21.40;;;;;;;-1.95;100.00;97236.22;5103521;28;20279;-62
2024/01/10 00:53:19;;;;;;;33.83;21.43;;;;;;;-2.06;100.00;97244.38;5103736;28;20322;-61
2024/01/10 00:55:46;;;;;;;36.13;23.47;;;;;;;-1.97;100.00;97240.59;5103884;27;20198;-60
2024/01/10 00:58:13;;;;;;;33.60;21.97;;;;;;;-2.06;100.00;97240.03;5103922;28;20205;-59
2024/01/10 01:00:41;;;;;;;35.70;22.93;;;;;;;-2.11;100.00;97241.94;5103479;28;20202;-60
2024/01/10 01:03:08;;;;;;;31.27;21.57;;;;;;;-2.20;100.00;97239.66;5103046;28;20201;-60
2024/01/10 01:05:35;;;;;;;35.70;23.13;;;;;;;-2.17;100.00;97236.09;5103318;27;20235;-60
2024/01/10 01:08:03;;;;;;;35.77;22.40;;;;;;;-2.20;100.00;97241.41;5102676;28;20227;-61
2024/01/10 01:10:30;;;;;;;30.73;21.33;;;;;;;-2.31;100.00;97244.34;5102175;27;20290;-60
2024/01/10 01:12:56;;;;;;;33.87;22.13;;;;;;;-2.49;100.00;97255.28;5103270;28;20212;-61
2024/01/10 01:15:23;;;;;;;30.87;21.17;;;;;;;-2.43;100.00;97256.81;5102750;27;20289;-61
2024/01/10 01:17:50;;;;;;;34.63;22.37;;;;;;;-2.48;100.00;97267.34;5102780;27;20625;-60
2024/01/10 01:20:18;;;;;;;37.57;22.97;;;;;;;-2.48;100.00;97262.19;5102604;27;20215;-60
2024/01/10 01:22:45;;;;;;;33.83;21.67;;;;;;;-2.56;100.00;97259.81;5102148;28;20215;-60
2024/01/10 01:25:14;;;;;;;34.67;22.60;;;;;;;-2.52;100.00;97265.75;5085528;28;20605;-60
2024/01/10 01:27:42;;;;;;;30.87;21.90;;;;;;;-2.45;100.00;97259.50;5103343;28;20209;-60
2024/01/10 01:30:12;;;;;;;33.43;22.03;;;;;;;-2.28;100.00;97259.78;5103424;28;20213;-60
2024/01/10 01:32:38;;;;;;;31.90;21.30;;;;;;;-2.32;100.00;97257.31;5087761;28;20230;-60
2024/01/10 01:35:06;;;;;;;35.87;22.53;;;;;;;-2.42;100.00;97256.78;5114686;27;20222;-61
2024/01/10 01:37:32;;;;;;;33.27;22.33;;;;;;;-2.41;100.00;97263.69;5102986;28;20205;-61
2024/01/10 01:39:59;;;;;;;34.27;21.83;;;;;;;-2.40;100.00;97255.00;5102821;28;20205;-60
2024/01/10 01:42:29;;;;;;;33.23;21.30;;;;;;;-2.36;100.00;97259.19;5102698;28;20296;-60
2024/01/10 01:44:56;;;;;;;33.07;21.67;;;;;;;-2.30;100.00;97250.38;5102118;28;20524;-59
2024/01/10 01:47:22;;;;;;;34.63;22.20;;;;;;;-2.30;100.00;97245.19;5102392;28;20202;-60
2024/01/10 01:49:49;;;;;;;31.23;21.30;;;;;;;-2.33;100.00;97253.03;5101861;27;20195;-62
2024/01/10 01:52:16;;;;;;;37.40;23.37;;;;;;;-2.28;100.00;97254.59;5101322;28;20217;-60
2024/01/10 01:54:42;;;;;;;34.83;23.00;;;;;;;-2.31;100.00;97259.03;5101541;28;20299;-61
2024/01/10 01:57:09;;;;;;;32.30;21.00;;;;;;;-2.26;100.00;97257.97;5083475;28;20694;-60
2024/01/10 01:59:37;;;;;;;33.30;23.50;;;;;;;-2.19;100.00;97256.88;5101628;28;20202;-61
2024/01/10 02:02:04;;;;;;;32.60;21.37;;;;;;;-2.23;100.00;97252.69;5101946;28;20442;-60
2024/01/10 02:04:34;;;;;;;35.97;23.27;;;;;;;-2.20;100.00;97251.75;5101968;28;20202;-61
2024/01/10 02:07:04;;;;;;;33.07;22.33;;;;;;;-2.22;100.00;97254.38;5101528;28;20233;-60
2024/01/10 02:09:30;;;;;;;35.77;22.50;;;;;;;-2.27;100.00;97253.72;5101200;28;20199;-60
2024/01/10 02:11:57;;;;;;;35.50;22.67;;;;;;;-2.20;100.00;97242.25;5102171;28;20235;-61
2024/01/10 02:14:24;;;;;;;35.73;22.17;;;;;;;-2.15;100.00;97245.50;5100709;28;20204;-60
2024/01/10 02:16:53;;;;;;;35.50;22.63;;;;;;;-2.19;100.00;97238.72;5101997;28;20206;-61
2024/01/10 02:19:21;;;;;;;37.30;22.40;;;;;;;-2.16;100.00;97246.41;5100401;28;20193;-61
2024/01/10 02:21:48;;;;;;;33.73;22.50;;;;;;;-2.14;100.00;97247.22;5100467;28;20660;-61
2024/01/10 02:24:15;;;;;;;35.47;21.70;;;;;;;-2.15;100.00;97245.50;5101253;28;20210;-60
2024/01/10 02:26:43;;;;;;;34.23;21.47;;;;;;;-2.08;100.00;97244.41;5102455;27;20206;-61
2024/01/10 02:29:10;;;;;;;35.53;21.23;;;;;;;-2.05;100.00;97246.88;5101213;27;20202;-60
2024/01/10 02:31:37;;;;;;;34.80;22.53;;;;;;;-2.05;100.00;97246.88;5101429;28;20224;-60
2024/01/10 02:34:03;;;;;;;30.23;21.20;;;;;;;-1.99;100.00;97248.44;5100887;28;20281;-61
2024/01/10 02:36:30;;;;;;;37.33;24.03;;;;;;;-1.94;100.00;97243.09;5101093;28;20208;-60
2024/01/10 02:38:56;;;;;;;31.10;21.53;;;;;;;-1.99;100.00;97240.66;5101054;28;20208;-60
2024/01/10 02:41:23;;;;;;;34.83;22.47;;;;;;;-2.04;100.00;97237.38;5100853;28;20300;-60
2024/01/10 02:43:51;;;;;;;36.87;22.53;;;;;;;-2.06;100.00;97244.38;5100992;27;20263;-61
2024/01/10 02:46:19;;;;;;;38.70;23.03;;;;;;;-2.07;100.00;97242.66;5101574;28;20197;-61
2024/01/10 02:48:47;;;;;;;35.73;23.00;;;;;;;-2.02;100.00;97233.81;5101788;27;20235;-61
2024/01/10 02:51:15;;;;;;;36.40;23.40;;;;;;;-1.92;100.00;97236.97;5101256;28;20221;-61
2024/01/10 02:53:42;;;;;;;38.53;23.17;;;;;;;-1.87;100.00;97234.19;5100824;28;20626;-60
2024/01/10 02:56:09;;;;;;;34.87;21.60;;;;;;;-1.84;100.00;97239.28;5101840;28;20247;-61
2024/01/10 02:58:35;;;;;;;38.20;22.10;;;;;;;-1.87;100.00;97240.22;5102129;28;20203;-61
2024/01/10 03:01:04;;;;;;;34.83;22.50;;;;;;;-1.78;100.00;97239.06;5100801;28;20288;-61
2024/01/10 03:03:30;;;;;;;33.27;22.10;;;;;;;-1.79;100.00;97232.19;5084079;28;20285;-60
2024/01/10 03:05:57;;;;;;;39.47;23.83;;;;;;;-1.75;100.00;97239.81;5101142;28;20360;-61
2024/01/10 03:08:24;;;;;;;40.23;23.63;;;;;;;-1.81;100.00;97242.63;5101463;28;20296;-60
2024/01/10 03:10:50;;;;;;;36.03;22.07;;;;;;;-1.78;100.00;97250.28;5101735;28;20202;-62
2024/01/10 03:13:17;;;;;;;33.40;21.97;;;;;;;-1.80;100.00;97246.03;5101507;28;20202;-60
2024/01/10 03:15:47;;;;;;;36.60;24.43;;;;;;;-1.79;100.00;97248.59;5100635;28;20278;-60
2024/01/10 03:18:15;;;;;;;36.57;23.97;;;;;;;-1.82;100.00;97246.13;5101871;28;20216;-60
2024/01/10 03:20:42;;;;;;;35.23;21.70;;;;;;;-1.96;100.00;97245.75;5100823;28;20209;-61
2024/01/10 03:23:08;;;;;;;37.17;22.77;;;;;;;-2.01;100.00;97251.06;5100453;28;20752;-61
2024/01/10 03:25:35;;;;;;;34.97;22.73;;;;;;;-2.03;100.00;97247.69;5101854;28;20209;-59
2024/01/10 03:28:02;;;;;;;36.37;23.00;;;;;;;-2.07;100.00;97246.09;5100876;28;20213;-61
2024/01/10 03:30:29;;;;;;;34.53;22.50;;;;;;;-2.12;100.00;97239.38;5101950;28;20213;-61
2024/01/10 03:32:55;;;;;;;34.57;21.53;;;;;;;-2.12;100.00;97235.03;5105136;28;20225;-60
2024/01/10 03:35:23;;;;;;;35.50;22.73;;;;;;;-2.21;100.00;97239.69;5105518;28;20252;-61
2024/01/10 03:37:50;;;;;;;33.20;21.50;;;;;;;-2.08;100.00;97240.97;5104322;27;20203;-61
2024/01/10 03:40:16;;;;;;;34.17;22.47;;;;;;;-2.01;100.00;97243.31;5104611;28;20207;-60
2024/01/10 03:42:43;;;;;;;33.50;23.20;;;;;;;-2.06;100.00;97242.63;5105248;27;20202;-60
2024/01/10 03:45:10;;;;;;;35.77;23.00;;;;;;;-2.11;100.00;97247.09;5104688;28;20217;-61
2024/01/10 03:47:37;;;;;;;36.33;21.77;;;;;;;-2.24;100.00;97239.81;5105227;28;20201;-60
2024/01/10 03:50:04;;;;;;;35.17;21.57;;;;;;;-2.08;100.00;97238.38;5105247;28;20211;-60
2024/01/10 03:52:31;;;;;;;36.67;24.07;;;;;;;-2.08;100.00;97236.63;5105557;28;20222;-63
2024/01/10 03:54:59;;;;;;;35.20;22.67;;;;;;;-2.06;100.00;97234.84;5106250;28;20294;-61
2024/01/10 03:57:27;;;;;;;36.70;23.33;;;;;;;-2.02;100.00;97235.59;5123588;28;20204;-62
2024/01/10 03:59:54;;;;;;;36.37;22.63;;;;;;;-2.16;100.00;97238.63;5123911;28;20213;-62
2024/01/10 04:02:21;;;;;;;37.33;23.30;;;;;;;-2.12;100.00;97241.97;5125389;28;20254;-62
2024/01/10 04:04:48;;;;;;;35.93;21.63;;;;;;;-2.09;100.00;97244.47;5126246;27;20187;-62
2024/01/10 04:07:14;;;;;;;35.63;21.87;;;;;;;-2.13;100.00;97243.72;5124602;28;20321;-62
2024/01/10 04:09:42;;;;;;;37.60;22.53;;;;;;;-1.92;100.00;97254.25;5128899;28;20208;-62
2024/01/10 04:12:10;;;;;;;35.97;21.80;;;;;;;-1.86;100.00;97249.72;5133101;28;20208;-61
2024/01/10 04:14:37;;;;;;;38.93;23.13;;;;;;;-1.81;100.00;97249.56;5115350;27;20210;-62
2024/01/10 04:17:04;;;;;;;35.90;22.27;;;;;;;-1.78;100.00;97239.06;5106265;28;20206;-61
2024/01/10 04:19:31;;;;;;;38.53;23.70;;;;;;;-1.71;100.00;97241.41;5108136;27;20691;-61
2024/01/10 04:21:59;;;;;;;34.90;21.60;;;;;;;-1.71;100.00;97240.56;5108363;28;20224;-60
2024/01/10 04:24:26;;;;;;;38.80;23.67;;;;;;;-1.72;100.00;97239.69;5108442;28;20292;-60
2024/01/10 04:26:54;;;;;;;36.47;23.80;;;;;;;-1.67;100.00;97239.53;5104632;28;20207;-62
2024/01/10 04:29:20;;;;;;;39.80;23.50;;;;;;;-1.60;100.00;97241.03;5103233;28;20542;-61
2024/01/10 04:31:47;;;;;;;38.97;23.57;;;;;;;-1.63;100.00;97241.13;5103246;28;20231;-62
2024/01/10 04:34:13;;;;;;;36.47;22.97;;;;;;;-1.64;100.00;97248.06;5102299;28;20595;-61
2024/01/10 04:36:40;;;;;;;36.40;24.03;;;;;;;-1.70;100.00;97239.66;5103712;28;20213;-60
2024/01/10 04:39:07;;;;;;;37.37;24.20;;;;;;;-1.64;100.00;97242.88;5103496;28;20226;-61
2024/01/10 04:41:34;;;;;;;35.67;23.30;;;;;;;-1.66;100.00;97236.88;5102952;28;20207;-61
2024/01/10 04:44:04;;;;;;;35.23;22.53;;;;;;;-1.70;100.00;97242.25;5103272;28;20210;-61
2024/01/10 04:46:31;;;;;;;36.53;24.23;;;;;;;-1.62;100.00;97242.81;5103751;27;20204;-63
2024/01/10 04:49:00;;;;;;;35.10;22.70;;;;;;;-1.67;100.00;97247.31;5103274;28;20283;-61
2024/01/10 04:51:28;;;;;;;37.30;23.67;;;;;;;-1.69;100.00;97243.91;5103125;28;20195;-61
2024/01/10 04:53:55;;;;;;;36.73;22.83;;;;;;;-1.62;100.00;97243.66;5102025;28;20205;-62
2024/01/10 04:56:22;;;;;;;36.50;23.73;;;;;;;-1.63;100.00;97246.31;5104091;28;20238;-63
2024/01/10 04:58:48;;;;;;;36.90;23.17;;;;;;;-1.72;100.00;97254.41;5104340;27;20669;-62
2024/01/10 05:01:16;;;;;;;35.43;24.23;;;;;;;-1.66;100.00;97254.19;5102845;28;20281;-61
2024/01/10 05:03:43;;;;;;;33.57;22.03;;;;;;;-1.66;100.00;97255.03;5105939;28;20631;-62
2024/01/10 05:06:10;;;;;;;33.77;22.27;;;;;;;-1.63;100.00;97254.91;5105157;28;20280;-62
2024/01/10 05:08:36;;;;;;;34.87;23.27;;;;;;;-1.74;100.00;97258.81;5104295;28;20290;-62
2024/01/10 05:11:03;;;;;;;37.37;23.57;;;;;;;-1.67;100.00;97258.53;5103682;28;20622;-62
2024/01/10 05:13:30;;;;;;;34.87;23.30;;;;;;;-1.74;100.00;97258.81;5105433;27;20311;-61
2024/01/10 05:15:56;;;;;;;31.90;21.90;;;;;;;-1.65;100.00;97255.88;5103326;28;20211;-62
2024/01/10 05:18:24;;;;;;;34.60;22.90;;;;;;;-1.69;100.00;97262.91;5103554;28;20220;-62
2024/01/10 05:20:51;;;;;;;34.60;22.80;;;;;;;-1.66;100.00;97256.78;5104139;28;20199;-62
2024/01/10 05:23:17;;;;;;;35.13;22.43;;;;;;;-1.74;100.00;97262.25;5104672;28;20585;-60
2024/01/10 05:25:44;;;;;;;38.93;22.87;;;;;;;-1.66;100.00;97254.19;5102785;28;20417;-58
2024/01/10 05:28:11;;;;;;;36.60;23.20;;;;;;;-1.77;100.00;97264.09;5102368;28;20624;-60
2024/01/10 05:30:37;;;;;;;36.77;23.00;;;;;;;-1.82;100.00;97266.00;5110820;28;20209;-64
2024/01/10 05:33:04;;;;;;;37.00;23.33;;;;;;;-1.77;100.00;97269.28;5133336;28;20335;-65
2024/01/10 05:35:32;;;;;;;35.07;22.57;;;;;;;-1.79;100.00;97268.47;5124573;28;20261;-62
2024/01/10 05:37:59;;;;;;;37.70;22.73;;;;;;;-1.75;100.00;97272.66;5124626;28;20224;-61
2024/01/10 05:40:25;;;;;;;34.17;23.57;;;;;;;-1.72;100.00;97273.41;5105729;28;20221;-61
2024/01/10 05:42:53;;;;;;;39.00;23.67;;;;;;;-1.64;100.00;97273.13;5086022;28;20650;-60
2024/01/10 05:45:20;;;;;;;35.90;22.07;;;;;;;-1.77;100.00;97279.66;5085597;27;20212;-61
2024/01/10 05:47:48;;;;;;;34.30;22.57;;;;;;;-1.71;100.00;97272.50;5102598;27;20548;-56
2024/01/10 05:50:14;;;;;;;36.27;23.03;;;;;;;-1.70;100.00;97273.38;5102506;28;20201;-61
2024/01/10 05:52:43;;;;;;;36.03;23.60;;;;;;;-1.78;100.00;97265.84;5100936;28;20234;-60
2024/01/10 05:55:10;;;;;;;34.53;22.30;;;;;;;-1.92;100.00;97273.25;5100864;28;20239;-60
2024/01/10 05:57:39;;;;;;;35.93;22.80;;;;;;;-1.99;100.00;97283.88;5083005;28;20263;-60
2024/01/10 06:00:09;;;;;;;36.83;23.20;;;;;;;-1.90;100.00;97283.56;5102000;27;20293;-60
2024/01/10 06:02:38;;;;;;;40.27;23.37;;;;;;;-1.96;100.00;97276.00;5100369;28;20643;-63
2024/01/10 06:05:06;;;;;;;34.47;22.20;;;;;;;-2.07;100.00;97282.38;5100479;28;20230;-60
2024/01/10 06:07:33;;;;;;;34.13;21.63;;;;;;;-1.93;100.00;97275.88;5101534;28;20288;-61
2024/01/10 06:10:03;;;;;;;40.27;22.10;;;;;;;-1.84;100.00;97275.59;5100076;28;20300;-59
2024/01/10 06:12:32;;;;;;;33.30;22.17;;;;;;;-1.90;100.00;97275.78;5101645;28;20669;-59
2024/01/10 06:14:58;;;;;;;32.90;21.23;;;;;;;-1.85;100.00;97273.88;5099780;28;20212;-61
2024/01/10 06:17:25;;;;;;;36.00;23.00;;;;;;;-1.89;100.00;97274.88;5101163;28;20554;-60
2024/01/10 06:19:51;;;;;;;35.77;23.27;;;;;;;-1.85;100.00;97273.88;5100509;28;20205;-60
2024/01/10 06:22:18;;;;;;;36.60;24.10;;;;;;;-1.91;100.00;97277.50;5100808;28;20208;-60
2024/01/10 06:24:46;;;;;;;36.13;23.10;;;;;;;-1.87;100.00;97275.66;5101019;28;20202;-61
2024/01/10 06:27:14;;;;;;;37.40;23.43;;;;;;;-1.87;100.00;97275.66;5101375;28;20625;-61
2024/01/10 06:29:42;;;;;;;38.20;23.20;;;;;;;-1.86;100.00;97275.63;5100438;28;20197;-61
2024/01/10 06:32:08;;;;;;;39.43;24.27;;;;;;;-1.78;100.00;97270.19;5101706;28;20205;-60
2024/01/10 06:34:35;;;;;;;35.07;23.57;;;;;;;-1.75;100.00;97267.47;5101511;28;20193;-59
2024/01/10 06:37:01;;;;;;;40.73;24.37;;;;;;;-1.76;100.00;97274.41;5102079;28;20225;-60
2024/01/10 06:39:28;;;;;;;36.37;24.03;;;;;;;-1.70;100.00;97275.97;5100979;28;20302;-61
2024/01/10 06:41:55;;;;;;;38.03;22.73;;;;;;;-1.71;100.00;97272.50;5100637;28;20213;-61
2024/01/10 06:44:27;;;;;;;43.30;24.30;;;;;;;-1.76;100.00;97269.22;5100510;28;20539;-60
2024/01/10 06:46:56;;;;;;;37.13;23.43;;;;;;;-1.63;100.00;97280.84;5101876;28;20215;-60
2024/01/10 06:49:23;;;;;;;37.73;23.87;;;;;;;-1.57;100.00;97269.44;5100587;28;20193;-60
2024/01/10 06:51:49;;;;;;;37.90;24.13;;;;;;;-1.58;100.00;97272.91;5101704;28;20228;-61
2024/01/10 06:54:18;;;;;;;38.90;24.53;;;;;;;-1.55;100.00;97272.81;5100524;28;20258;-59
2024/01/10 06:56:44;;;;;;;38.97;24.43;;;;;;;-1.53;100.00;97278.81;5101417;28;20236;-59
2024/01/10 06:59:10;;;;;;;39.30;23.70;;;;;;;-1.64;100.00;97283.50;5101010;28;20242;-60
2024/01/10 07:01:39;;;;;;;36.53;24.40;;;;;;;-1.56;100.00;97286.69;5100572;28;20697;-60
2024/01/10 07:04:06;;;;;;;40.93;24.67;;;;;;;-1.59;100.00;97282.44;5100459;28;20202;-61
2024/01/10 07:06:32;;;;;;;39.47;24.97;;;;;;;-1.60;100.00;97282.50;5100262;28;20669;-61
2024/01/10 07:09:00;;;;;;;37.67;24.00;;;;;;;-1.68;100.00;97290.56;5100065;28;20634;-60
2024/01/10 07:11:28;;;;;;;42.93;24.90;;;;;;;-1.76;100.00;97289.97;5100879;28;20233;-60
2024/01/10 07:13:54;;;;;;;39.07;24.23;;;;;;;-1.72;100.00;97298.47;5100508;28;20290;-59
2024/01/10 07:16:21;;;;;;;39.40;24.60;;;;;;;-1.73;100.00;97299.38;5099785;28;20207;-61
2024/01/10 07:18:51;;;;;;;37.83;24.23;;;;;;;-1.63;100.00;97290.41;5101337;28;20200;-61
2024/01/10 07:21:17;;;;;;;36.73;24.00;;;;;;;-1.66;100.00;97300.84;5100507;28;20627;-61
2024/01/10 07:23:44;;;;;;;41.87;24.30;;;;;;;-1.63;100.00;97300.78;5100824;28;20274;-61
2024/01/10 07:26:14;;;;;;;36.13;23.60;;;;;;;-1.56;100.00;97302.25;5100327;28;21202;-61
2024/01/10 07:28:41;;;;;;;38.70;24.47;;;;;;;-1.55;100.00;97298.75;5101138;28;20231;-59
2024/01/10 07:31:08;;;;;;;37.83;24.47;;;;;;;-1.47;100.00;97301.91;5101088;28;20235;-60
2024/01/10 07:33:34;;;;;;;37.33;23.40;;;;;;;-1.42;100.00;97297.44;5101349;28;20213;-59
2024/01/10 07:36:03;;;;;;;38.10;24.57;;;;;;;-1.35;100.00;97301.50;5100218;28;20203;-59
2024/01/10 07:38:31;;;;;;;42.13;24.63;;;;;;;-1.32;100.00;97301.38;5100299;28;20564;-60
2024/01/10 07:40:59;;;;;;;42.20;25.13;;;;;;;-1.24;100.00;97304.53;5099960;28;20216;-59
2024/01/10 07:43:26;;;;;;;38.47;25.00;;;;;;;-1.27;100.00;97307.22;5100317;28;20650;-60
2024/01/10 07:45:53;;;;;;;37.07;23.33;;;;;;;-1.20;100.00;97303.50;5100489;28;20216;-59
2024/01/10 07:48:21;;;;;;;42.40;24.27;;;;;;;-1.17;100.00;97306.00;5100679;28;20564;-60
2024/01/10 07:50:48;;;;;;;40.43;25.53;;;;;;;-1.18;100.00;97304.31;5101128;28;20205;-61
2024/01/10 07:53:16;;;;;;;39.53;25.30;;;;;;;-1.16;100.00;97310.28;5100389;28;20239;-61
2024/01/10 07:55:43;;;;;;;42.43;24.67;;;;;;;-1.14;100.00;97313.69;5100427;28;20217;-60
2024/01/10 07:58:09;;;;;;;40.00;25.43;;;;;;;-1.10;100.00;97317.03;5100224;28;20200;-59
2024/01/10 08:00:36;;;;;;;41.17;24.83;;;;;;;-1.09;100.00;97316.09;5100208;28;20789;-61
2024/01/10 08:03:03;;;;;;;40.53;25.53;;;;;;;-1.01;100.00;97317.53;5099501;28;20190;-59
2024/01/10 08:05:30;;;;;;;42.63;25.07;;;;;;;-0.93;100.00;97319.00;5091889;28;20695;-59
2024/01/10 08:07:58;;;;;;;38.90;24.23;;;;;;;-0.91;100.00;97322.34;5080197;28;20680;-61
2024/01/10 08:10:28;;;;;;;38.83;24.13;;;;;;;-0.85;100.00;97316.97;5080027;28;20634;-60
2024/01/10 08:12:56;;;;;;;41.70;25.07;;;;;;;-0.79;100.00;97321.91;5081011;28;20231;-61
2024/01/10 08:15:23;;;;;;;42.17;26.33;;;;;;;-0.90;100.00;97318.88;5080310;28;20216;-60
2024/01/10 08:17:50;;;;;;;39.70;25.63;;;;;;;-0.92;100.00;97320.69;5084160;28;20232;-60
2024/01/10 08:20:20;;;;;;;40.73;25.70;;;;;;;-0.92;100.00;97325.88;5084750;28;20196;-59
2024/01/10 08:22:47;;;;;;;39.30;24.83;;;;;;;-0.79;100.00;97330.56;5084854;28;20295;-60
2024/01/10 08:25:15;;;;;;;40.80;25.00;;;;;;;-0.83;100.00;97325.53;5086391;28;20204;-60
2024/01/10 08:27:45;;;;;;;35.43;24.00;;;;;;;-0.71;100.00;97336.28;5095443;28;20200;-59
2024/01/10 08:30:12;;;;;;;39.87;24.57;;;;;;;-0.66;100.00;97333.53;5093783;28;20268;-60
2024/01/10 08:32:41;;;;;;;38.90;24.07;;;;;;;-0.66;100.00;97339.56;5086471;28;20287;-59
2024/01/10 08:35:09;;;;;;;38.70;24.07;;;;;;;-0.57;100.00;97334.00;5085398;28;20411;-62
2024/01/10 08:37:35;;;;;;;39.30;23.87;;;;;;;-0.46;100.00;97331.00;5084549;28;20212;-59
2024/01/10 08:40:06;;;;;;;37.30;24.70;;;;;;;-0.42;100.00;97342.97;5083929;28;20295;-60
2024/01/10 08:42:33;;;;;;;38.43;25.03;;;;;;;-0.35;100.00;97341.81;5083967;28;20204;-60
2024/01/10 08:45:00;;;;;;;39.40;24.63;;;;;;;-0.36;100.00;97344.50;5084699;28;20202;-60
2024/01/10 08:47:27;;;;;;;39.37;24.73;;;;;;;-0.41;100.00;97347.28;5084828;28;20201;-60
2024/01/10 08:49:54;;;;;;;38.03;25.67;;;;;;;-0.37;100.00;97346.25;5083703;28;20291;-61
2024/01/10 08:52:20;;;;;;;44.23;26.03;;;;;;;-0.30;100.00;97346.84;5085337;28;20276;-61
2024/01/10 08:54:47;;;;;;;42.13;26.27;;;;;;;-0.24;100.00;97344.00;5091427;28;20259;-61
2024/01/10 08:57:14;;;;;;;38.77;24.60;;;;;;;-0.29;100.00;97343.34;5092937;28;20303;-61
2024/01/10 08:59:42;;;;;;;42.10;25.30;;;;;;;-0.18;100.00;97343.78;5089681;28;20208;-62
2024/01/10 09:02:10;;;;;;;37.23;25.17;;;;;;;-0.20;100.00;97348.19;5083258;28;20201;-60
2024/01/10 09:04:39;;;;;;;39.27;24.13;;;;;;;-0.24;100.00;97341.41;5083538;28;20204;-60
2024/01/10 09:07:05;;;;;;;37.00;24.20;;;;;;;-0.01;100.00;97350.00;5103605;28;20206;-60
2024/01/10 09:09:32;;;;;;;39.10;25.50;;;;;;;0.14;100.00;97347.69;5102702;28;20209;-60
2024/01/10 09:11:59;;;;;;;39.37;24.47;;;;;;;0.28;100.00;97358.38;5103794;28;20232;-60
2024/01/10 09:14:25;;;;;;;40.63;26.33;;;;;;;0.30;100.00;97353.94;5101892;28;20555;-59
2024/01/10 09:16:52;;;;;;;34.80;24.60;;;;;;;0.43;100.00;97345.56;5103575;28;20464;-61
2024/01/10 09:19:20;;;;;;;42.57;26.63;;;;;;;0.31;100.00;97350.44;5086057;28;20216;-61
2024/01/10 09:21:48;;;;;;;38.40;25.93;;;;;;;0.53;100.00;97353.84;5103023;28;20201;-61
2024/01/10 09:24:15;;;;;;;40.20;25.70;;;;;;;0.28;100.00;97360.97;5102674;28;20197;-61
2024/01/10 09:26:42;;;;;;;37.43;25.90;;;;;;;0.22;100.00;97356.00;5102670;28;20215;-61
2024/01/10 09:29:09;;;;;;;43.43;26.53;;;;;;;0.32;100.00;97363.38;5102047;28;20200;-60
2024/01/10 09:31:35;;;;;;;37.03;25.40;;;;;;;0.41;100.00;97359.56;5102777;28;20729;-60
2024/01/10 09:34:02;;;;;;;40.37;26.47;;;;;;;0.50;100.00;97367.81;5102362;28;20255;-61
2024/01/10 09:36:30;;;;;;;40.37;26.00;;;;;;;0.55;100.00;97365.03;5102414;28;20194;-60
2024/01/10 09:38:57;;;;;;;38.97;26.03;;;;;;;0.53;100.00;97368.59;5102037;28;20201;-61
2024/01/10 09:41:24;;;;;;;38.83;26.60;;;;;;;0.69;100.00;97367.88;5103182;28;20311;-62
2024/01/10 09:43:50;;;;;;;37.23;24.77;;;;;;;0.69;100.00;97374.84;5102309;28;20193;-59
2024/01/10 09:46:19;;;;;;;42.40;25.50;;;;;;;0.64;100.00;97369.81;5103028;28;20383;-61
2024/01/10 09:48:46;;;;;;;42.93;26.27;;;;;;;0.57;100.00;97376.19;5102514;27;20695;-61
2024/01/10 09:51:13;;;;;;;39.97;26.47;;;;;;;0.65;100.00;97375.88;5101840;28;20200;-60
2024/01/10 09:53:45;;;;;;;37.00;25.53;;;;;;;0.65;100.00;97379.34;5102370;28;20225;-60
2024/01/10 09:56:11;;;;;;;42.43;27.40;;;;;;;0.77;100.00;97376.22;5101661;28;20212;-62
2024/01/10 09:58:40;;;;;;;40.90;26.40;;;;;;;0.81;100.00;97379.53;5102504;28;20238;-61
2024/01/10 10:01:07;;;;;;;42.83;27.90;;;;;;;0.80;100.00;97380.44;5101200;28;20200;-61
2024/01/10 10:03:37;;;;;;;42.07;26.83;;;;;;;0.68;100.00;97381.81;5102360;28;20259;-59
2024/01/10 10:06:04;;;;;;;39.63;26.50;;;;;;;0.84;100.00;97382.00;5102078;28;20228;-61
2024/01/10 10:08:31;;;;;;;40.87;26.37;;;;;;;0.91;100.00;97376.47;5101271;28;20722;-61
2024/01/10 10:10:59;;;;;;;39.17;25.83;;;;;;;0.92;100.00;97375.53;5101774;28;20197;-60
2024/01/10 10:13:26;;;;;;;38.67;26.37;;;;;;;1.10;100.00;97370.47;5102795;28;20303;-60
2024/01/10 10:15:59;;;;;;;41.90;26.97;;;;;;;1.00;100.00;97368.25;5101774;28;20208;-61
2024/01/10 10:18:26;;;;;;;39.70;25.57;;;;;;;1.29;100.00;97368.72;5102303;28;20202;-60
2024/01/10 10:21:07;;;;;;;44.53;27.53;;;;;;;1.25;100.00;97361.94;5102341;28;20209;-61
2024/01/10 10:23:34;;;;;;;46.23;27.87;;;;;;;1.22;99.76;97367.28;5114916;28;20189;-59
2024/01/10 10:26:13;;;;;;;41.70;26.93;;;;;;;1.26;100.00;97359.28;5115646;28;20194;-60
2024/01/10 10:28:40;;;;;;;41.80;26.83;;;;;;;1.28;99.97;97362.66;5118953;28;20193;-61
2024/01/10 10:31:07;;;;;;;42.63;28.10;;;;;;;1.29;100.00;97369.56;5109875;28;20213;-60
2024/01/10 10:33:34;;;;;;;43.70;26.63;;;;;;;1.44;99.76;97362.81;5102259;28;20229;-61
2024/01/10 10:36:01;;;;;;;47.50;26.83;;;;;;;1.20;100.00;97358.72;5100969;28;20209;-59
2024/01/10 10:38:27;;;;;;;41.10;27.93;;;;;;;1.11;100.00;97364.31;5101667;28;20193;-60
2024/01/10 10:40:54;;;;;;;41.93;27.40;;;;;;;1.04;100.00;97362.91;5100878;28;20210;-61
2024/01/10 10:43:23;;;;;;;39.73;26.17;;;;;;;1.17;100.00;97367.50;5102012;28;20198;-60
2024/01/10 10:45:50;;;;;;;40.37;25.50;;;;;;;1.06;100.00;97355.88;5101619;27;20205;-60
2024/01/10 10:48:19;;;;;;;42.10;27.03;;;;;;;1.04;100.00;97365.50;5101709;28;20642;-62
2024/01/10 10:50:52;;;;;;;44.00;28.07;;;;;;;0.93;100.00;97366.81;5100715;28;20201;-61
2024/01/10 10:53:19;;;;;;;44.63;28.83;;;;;;;0.93;100.00;97363.38;5101001;28;20625;-61
2024/01/10 10:55:47;;;;;;;42.00;26.43;;;;;;;0.97;100.00;97370.13;5101028;28;20200;-61
2024/01/10 10:58:14;;;;;;;44.27;27.83;;;;;;;0.99;100.00;97365.72;5100890;28;20201;-61
2024/01/10 11:00:42;;;;;;;46.80;28.23;;;;;;;0.89;100.00;97367.88;5103293;28;20205;-61
2024/01/10 11:03:11;;;;;;;49.73;28.33;;;;;;;0.97;100.00;97360.56;5108041;28;20236;-61
2024/01/10 11:05:41;;;;;;;43.90;27.83;;;;;;;0.91;100.00;97362.59;5097975;28;20702;-59
2024/01/10 11:08:10;;;;;;;47.40;29.17;;;;;;;0.89;100.00;97351.38;5082425;28;20265;-61
2024/01/10 11:10:38;;;;;;;42.07;27.70;;;;;;;0.79;100.00;97350.94;5087917;28;20266;-61
2024/01/10 11:13:27;;;;;;;47.10;27.77;;;;;;;0.80;100.00;97360.47;5086196;28;20309;-61